Time;durP1;ratioP1;P1;durP2;ratioP2;P2;SDS_P1;SDS_P2;PMS_P1;PMS_P2;Temp;Humidity;BMP_temperature;BMP_pressure;BME280_temperature;BME280_humidity;BME280_pressure;Samples;Min_cycle;Max_cycle;Signal;HPM_P1;HPM_P2
2022/06/18 00:00:00;;;;;;;3.53;3.10;;;18.50;81.00;;;;;;5032408;28;20029;-58
2022/06/18 00:02:28;;;;;;;3.03;2.75;;;18.50;81.30;;;;;;5017841;28;20030;-58
2022/06/18 00:04:54;;;;;;;3.20;2.90;;;18.50;81.50;;;;;;5034576;28;20601;-58
2022/06/18 00:07:21;;;;;;;3.35;3.03;;;18.50;81.70;;;;;;5034061;28;20101;-58
2022/06/18 00:10:01;;;;;;;4.82;3.00;;;18.50;81.80;;;;;;5034378;28;20041;-57
2022/06/18 00:15:24;;;;;;;3.53;2.90;;;18.50;81.70;;;;;;5023384;28;20394;-58
2022/06/18 00:17:50;;;;;;;2.72;2.53;;;18.50;81.70;;;;;;5027606;28;20033;-58
2022/06/18 00:20:18;;;;;;;2.78;2.53;;;18.40;81.30;;;;;;5028032;28;20109;-58
2022/06/18 00:22:47;;;;;;;3.45;2.92;;;18.40;81.20;;;;;;5034192;28;20493;-58
2022/06/18 00:25:41;;;;;;;4.93;4.05;;;18.40;81.50;;;;;;5034092;28;20492;-58
2022/06/18 00:28:15;;;;;;;3.60;3.25;;;18.40;81.60;;;;;;5033863;28;20056;-58
2022/06/18 00:30:41;;;;;;;3.47;3.17;;;18.30;81.70;;;;;;5022580;28;20041;-58
2022/06/18 00:33:08;;;;;;;3.13;2.83;;;18.30;81.70;;;;;;5023216;28;20512;-58
2022/06/18 00:35:34;;;;;;;3.13;2.85;;;18.30;81.60;;;;;;5033855;28;20112;-58
2022/06/18 00:38:00;;;;;;;3.15;2.88;;;18.30;81.90;;;;;;5022356;28;20021;-58
2022/06/18 00:40:39;;;;;;;3.13;2.88;;;18.20;81.50;;;;;;5033358;28;20041;-58
2022/06/18 00:43:12;;;;;;;2.70;2.50;;;18.20;81.70;;;;;;5025072;28;20095;-58
2022/06/18 00:45:38;;;;;;;2.20;2.10;;;18.20;81.70;;;;;;5023072;28;20034;-57
2022/06/18 00:48:25;;;;;;;3.00;2.60;;;18.20;82.00;;;;;;5029556;28;20068;-58
2022/06/18 00:51:42;;;;;;;2.85;2.58;;;18.20;81.90;;;;;;5033693;28;20080;-58
2022/06/18 00:54:24;;;;;;;2.97;2.60;;;18.10;82.10;;;;;;5028577;28;20717;-58
2022/06/18 00:57:13;;;;;;;3.00;2.70;;;18.10;82.40;;;;;;5020253;28;20474;-58
2022/06/18 01:00:01;;;;;;;2.67;2.47;;;18.10;82.60;;;;;;5030295;28;20065;-57
2022/06/18 01:02:38;;;;;;;2.58;2.38;;;18.00;82.20;;;;;;5013846;28;20429;-58
2022/06/18 01:05:23;;;;;;;2.72;2.53;;;18.00;82.00;;;;;;5028554;28;20045;-57
2022/06/18 01:07:54;;;;;;;2.92;2.40;;;18.00;82.10;;;;;;5015073;28;20025;-58
2022/06/18 01:10:35;;;;;;;2.97;2.78;;;18.00;82.10;;;;;;5025176;28;20057;-58
2022/06/18 01:13:05;;;;;;;2.67;2.47;;;18.00;82.50;;;;;;5032278;28;20037;-58
2022/06/18 01:15:32;;;;;;;2.50;2.30;;;18.00;82.60;;;;;;5024900;28;20398;-58
2022/06/18 01:17:59;;;;;;;2.60;2.40;;;17.90;82.60;;;;;;5025068;28;20029;-58
2022/06/18 01:20:25;;;;;;;2.55;2.35;;;18.00;82.30;;;;;;5033396;28;20029;-58
2022/06/18 01:23:21;;;;;;;2.72;2.28;;;17.90;82.40;;;;;;5033251;28;20029;-58
2022/06/18 01:25:47;;;;;;;2.20;2.10;;;17.90;82.50;;;;;;5033398;28;20029;-58
2022/06/18 01:28:16;;;;;;;2.50;2.30;;;17.90;82.60;;;;;;5019749;28;20026;-58
2022/06/18 01:30:43;;;;;;;2.40;2.20;;;17.90;82.40;;;;;;5015392;28;20091;-58
2022/06/18 01:33:10;;;;;;;2.35;2.25;;;17.90;82.90;;;;;;5031777;28;20026;-58
2022/06/18 01:35:38;;;;;;;2.42;2.22;;;17.80;83.00;;;;;;5018745;28;20033;-58
2022/06/18 01:38:05;;;;;;;2.75;2.55;;;17.80;82.80;;;;;;5022356;28;20036;-58
2022/06/18 01:40:44;;;;;;;2.70;2.30;;;17.80;82.80;;;;;;5032477;28;20473;-58
2022/06/18 01:43:13;;;;;;;2.30;2.20;;;17.80;83.10;;;;;;5032918;28;20045;-58
2022/06/18 01:45:40;;;;;;;2.55;2.35;;;17.80;83.10;;;;;;5016564;28;20389;-58
2022/06/18 01:48:28;;;;;;;2.67;2.47;;;17.80;83.20;;;;;;5029218;28;20073;-57
2022/06/18 01:51:05;;;;;;;2.75;2.55;;;17.80;83.40;;;;;;5031025;28;20512;-58
2022/06/18 01:53:37;;;;;;;2.67;2.47;;;17.80;83.80;;;;;;5033360;28;20029;-58
2022/06/18 01:56:15;;;;;;;2.63;2.40;;;17.80;83.80;;;;;;5034403;28;20025;-58
2022/06/18 01:58:49;;;;;;;2.58;2.38;;;17.80;83.80;;;;;;5042936;28;20029;-57
2022/06/18 02:01:21;;;;;;;2.60;2.40;;;17.80;83.60;;;;;;5015137;28;20037;-58
2022/06/18 02:03:47;;;;;;;2.60;2.40;;;17.80;83.80;;;;;;5027383;28;20448;-57
2022/06/18 02:06:13;;;;;;;2.63;2.42;;;17.80;83.80;;;;;;5030803;28;20543;-58
2022/06/18 02:08:39;;;;;;;2.53;2.33;;;17.80;83.90;;;;;;5024193;28;20487;-57
2022/06/18 02:11:07;;;;;;;2.60;2.40;;;17.80;84.00;;;;;;5032828;28;20025;-57
2022/06/18 02:13:59;;;;;;;2.30;2.10;;;17.80;84.00;;;;;;5031403;28;20026;-58
2022/06/18 02:16:29;;;;;;;2.30;2.20;;;17.90;84.30;;;;;;5024095;28;20030;-58
2022/06/18 02:18:59;;;;;;;2.35;2.17;;;17.80;83.60;;;;;;5025953;28;20029;-58
2022/06/18 02:21:25;;;;;;;2.53;2.33;;;17.80;83.50;;;;;;5032295;28;20033;-58
2022/06/18 02:23:54;;;;;;;2.42;2.22;;;17.80;83.90;;;;;;5032195;28;20486;-57
2022/06/18 02:26:23;;;;;;;2.80;2.50;;;17.80;84.00;;;;;;5032670;28;20026;-57
2022/06/18 02:28:53;;;;;;;2.22;2.10;;;17.80;83.80;;;;;;5029284;28;20075;-58
2022/06/18 02:31:23;;;;;;;2.58;2.38;;;17.90;83.70;;;;;;5015068;28;20030;-58
2022/06/18 02:34:00;;;;;;;2.70;2.40;;;17.90;83.90;;;;;;5017558;28;20026;-58
2022/06/18 02:36:35;;;;;;;2.50;2.30;;;17.90;83.80;;;;;;5018070;28;20055;-58
2022/06/18 02:39:22;;;;;;;2.45;2.25;;;17.90;83.90;;;;;;5026959;28;20079;-58
2022/06/18 02:41:48;;;;;;;2.53;2.25;;;17.90;84.00;;;;;;5032264;28;20079;-58
2022/06/18 02:44:15;;;;;;;2.55;2.35;;;18.00;83.90;;;;;;5025352;28;20037;-58
2022/06/18 02:46:41;;;;;;;2.65;2.45;;;18.00;83.90;;;;;;5023945;28;20061;-58
2022/06/18 02:49:10;;;;;;;2.47;2.28;;;18.00;83.70;;;;;;5032356;28;20100;-58
2022/06/18 02:51:36;;;;;;;2.78;2.58;;;18.10;83.50;;;;;;5027182;28;20037;-58
2022/06/18 02:54:03;;;;;;;2.78;2.53;;;18.10;83.00;;;;;;5031734;28;20030;-58
2022/06/18 02:56:28;;;;;;;2.53;2.33;;;18.10;82.90;;;;;;5032433;28;20108;-58
2022/06/18 02:58:55;;;;;;;2.83;2.63;;;18.10;82.70;;;;;;5026343;28;20022;-58
2022/06/18 03:01:25;;;;;;;2.70;2.50;;;18.10;82.60;;;;;;5031365;28;20025;-58
2022/06/18 03:03:54;;;;;;;3.00;2.80;;;18.10;82.60;;;;;;5034815;28;20545;-58
2022/06/18 03:06:22;;;;;;;2.42;2.22;;;18.10;82.40;;;;;;5032694;28;20475;-57
2022/06/18 03:08:49;;;;;;;2.60;2.40;;;18.10;82.50;;;;;;5017434;28;20029;-58
2022/06/18 03:14:01;;;;;;;2.67;2.47;;;18.10;82.70;;;;;;5033743;28;20037;-58
2022/06/18 03:16:28;;;;;;;3.08;2.38;;;18.10;82.40;;;;;;5038390;28;20400;-58
2022/06/18 03:18:56;;;;;;;3.10;2.80;;;18.10;82.40;;;;;;5035430;28;20477;-58
2022/06/18 03:21:28;;;;;;;2.55;2.35;;;18.10;82.50;;;;;;5035288;28;20033;-58
2022/06/18 03:23:53;;;;;;;2.60;2.35;;;18.20;82.60;;;;;;5034543;28;20389;-58
2022/06/18 03:26:20;;;;;;;2.42;2.22;;;18.20;82.60;;;;;;5017787;28;20025;-58
2022/06/18 03:28:46;;;;;;;2.63;2.38;;;18.20;82.60;;;;;;5020592;28;20049;-57
2022/06/18 03:31:12;;;;;;;2.50;2.30;;;18.20;82.50;;;;;;5028801;28;20041;-58
2022/06/18 03:33:38;;;;;;;2.58;2.38;;;18.20;82.40;;;;;;5035310;28;20022;-58
2022/06/18 03:36:05;;;;;;;2.47;2.28;;;18.20;82.40;;;;;;5034483;28;20057;-58
2022/06/18 03:38:31;;;;;;;2.70;2.50;;;18.20;82.50;;;;;;5035263;28;20106;-58
2022/06/18 03:40:58;;;;;;;3.30;2.47;;;18.20;82.50;;;;;;5029816;28;20052;-58
2022/06/18 03:43:25;;;;;;;2.50;2.30;;;18.20;82.40;;;;;;5023587;28;20089;-58
2022/06/18 03:46:00;;;;;;;2.70;2.50;;;18.30;82.30;;;;;;5029076;28;20427;-58
2022/06/18 03:48:26;;;;;;;2.63;2.42;;;18.30;82.60;;;;;;5026657;28;20132;-58
2022/06/18 03:50:51;;;;;;;2.83;2.63;;;18.30;82.20;;;;;;5033322;28;20135;-58
2022/06/18 03:53:17;;;;;;;2.53;2.33;;;18.30;82.20;;;;;;5048182;28;20097;-58
2022/06/18 03:55:43;;;;;;;2.50;2.30;;;18.30;82.30;;;;;;5037306;28;20034;-58
2022/06/18 03:58:09;;;;;;;2.75;2.55;;;18.30;82.30;;;;;;5026089;28;20438;-58
2022/06/18 04:00:35;;;;;;;2.85;2.42;;;18.30;82.40;;;;;;5015763;28;20087;-58
2022/06/18 04:03:01;;;;;;;3.00;2.70;;;18.30;82.50;;;;;;5029039;28;20075;-57
2022/06/18 04:05:27;;;;;;;2.88;2.67;;;18.30;82.40;;;;;;5033023;28;20045;-58
2022/06/18 04:07:53;;;;;;;2.38;2.17;;;18.30;82.30;;;;;;5026945;28;20014;-58
2022/06/18 04:10:21;;;;;;;3.00;2.80;;;18.30;82.60;;;;;;5029838;28;20095;-58
2022/06/18 04:12:47;;;;;;;2.83;2.63;;;18.30;82.40;;;;;;5027227;28;20052;-58
2022/06/18 04:15:15;;;;;;;2.85;2.65;;;18.40;82.50;;;;;;5029866;28;20080;-57
2022/06/18 04:17:41;;;;;;;2.63;2.42;;;18.40;82.70;;;;;;5020286;28;20567;-58
2022/06/18 04:20:15;;;;;;;2.80;2.60;;;18.40;82.50;;;;;;5037986;28;20029;-58
2022/06/18 04:22:40;;;;;;;3.45;2.83;;;18.50;82.30;;;;;;5034511;28;20021;-57
2022/06/18 04:25:07;;;;;;;2.88;2.67;;;18.40;82.10;;;;;;5033963;28;20500;-58
2022/06/18 04:27:32;;;;;;;2.72;2.50;;;18.50;82.10;;;;;;5032976;28;21548;-58
2022/06/18 04:29:58;;;;;;;3.00;2.80;;;18.50;82.20;;;;;;5033826;28;20056;-57
2022/06/18 04:32:24;;;;;;;2.50;2.30;;;18.50;82.10;;;;;;5023231;28;20032;-57
2022/06/18 04:34:50;;;;;;;2.58;2.38;;;18.50;81.80;;;;;;5032888;28;20029;-58
2022/06/18 04:37:15;;;;;;;3.13;2.65;;;18.60;81.90;;;;;;5033320;28;20036;-58
2022/06/18 04:39:41;;;;;;;2.97;2.78;;;18.60;82.00;;;;;;5033551;28;20022;-58
2022/06/18 04:42:07;;;;;;;2.70;2.50;;;18.60;81.70;;;;;;5033348;28;20036;-58
2022/06/18 04:44:32;;;;;;;2.90;2.60;;;18.60;81.40;;;;;;5033417;28;20373;-58
2022/06/18 04:46:58;;;;;;;2.80;2.60;;;18.70;81.40;;;;;;5033063;28;20499;-58
2022/06/18 04:49:23;;;;;;;2.55;2.35;;;18.70;81.30;;;;;;5028369;28;20029;-58
2022/06/18 04:51:49;;;;;;;3.05;2.45;;;18.70;81.10;;;;;;5027685;28;20416;-58
2022/06/18 04:54:15;;;;;;;2.55;2.35;;;18.80;81.00;;;;;;5033587;28;20021;-58
2022/06/18 04:56:40;;;;;;;2.60;2.40;;;18.80;81.00;;;;;;5030284;28;20028;-58
2022/06/18 04:59:06;;;;;;;2.97;2.70;;;18.80;80.60;;;;;;5032291;28;20028;-58
2022/06/18 05:01:32;;;;;;;2.67;2.47;;;18.80;80.60;;;;;;5033172;28;20032;-58
2022/06/18 05:03:58;;;;;;;2.80;2.60;;;18.80;80.50;;;;;;5031587;28;20374;-58
2022/06/18 05:06:24;;;;;;;2.65;2.45;;;18.80;80.60;;;;;;5033813;28;20488;-58
2022/06/18 05:08:50;;;;;;;3.38;3.00;;;18.80;80.50;;;;;;5029729;28;20021;-59
2022/06/18 05:11:15;;;;;;;3.10;2.80;;;18.80;80.60;;;;;;5033541;28;20112;-57
2022/06/18 05:13:41;;;;;;;2.88;2.65;;;18.80;80.50;;;;;;5031032;28;20079;-58
2022/06/18 05:16:08;;;;;;;3.30;3.00;;;18.80;80.60;;;;;;5033238;28;20029;-58
2022/06/18 05:18:35;;;;;;;2.80;2.60;;;18.80;80.50;;;;;;5033299;28;20492;-58
2022/06/18 05:21:00;;;;;;;3.30;3.00;;;18.80;80.70;;;;;;5032103;28;20029;-58
2022/06/18 05:23:26;;;;;;;2.85;2.65;;;18.80;80.60;;;;;;5032260;28;20048;-58
2022/06/18 05:25:57;;;;;;;2.85;2.58;;;18.80;80.70;;;;;;5023835;28;20037;-58
2022/06/18 05:28:23;;;;;;;3.50;2.70;;;18.80;80.80;;;;;;5019927;28;20025;-58
2022/06/18 05:30:49;;;;;;;2.70;2.50;;;18.80;80.90;;;;;;5033189;28;20086;-58
2022/06/18 05:33:14;;;;;;;2.80;2.60;;;18.80;80.80;;;;;;5028172;28;20026;-58
2022/06/18 05:35:42;;;;;;;3.33;3.00;;;18.80;80.90;;;;;;5028320;28;20033;-58
2022/06/18 05:38:14;;;;;;;2.70;2.50;;;18.80;80.90;;;;;;5032901;28;20113;-58
2022/06/18 05:40:40;;;;;;;3.53;2.88;;;18.90;80.90;;;;;;5033336;28;20032;-58
2022/06/18 05:43:05;;;;;;;2.63;2.42;;;18.90;80.90;;;;;;5020358;28;20556;-58
2022/06/18 05:45:31;;;;;;;3.33;2.95;;;18.90;80.90;;;;;;5032365;28;20024;-58
2022/06/18 05:47:57;;;;;;;3.20;2.90;;;19.00;81.10;;;;;;5029866;28;20088;-58
2022/06/18 05:50:22;;;;;;;4.10;3.03;;;19.00;81.00;;;;;;5046413;28;20025;-58
2022/06/18 05:52:48;;;;;;;3.00;2.70;;;19.00;80.90;;;;;;5031951;28;20044;-58
2022/06/18 05:55:15;;;;;;;2.63;2.42;;;19.00;80.70;;;;;;5023607;28;20106;-58
2022/06/18 05:57:45;;;;;;;3.00;2.80;;;19.10;80.40;;;;;;5028706;28;20028;-58
2022/06/18 06:00:14;;;;;;;2.90;2.70;;;19.10;80.20;;;;;;5024804;28;20034;-58
2022/06/18 06:02:39;;;;;;;3.10;2.85;;;19.10;80.00;;;;;;5032102;28;20033;-58
2022/06/18 06:05:05;;;;;;;2.88;2.67;;;19.20;79.90;;;;;;5026430;28;20550;-58
2022/06/18 06:07:31;;;;;;;3.45;2.80;;;19.20;79.80;;;;;;5028796;28;20119;-58
2022/06/18 06:12:42;;;;;;;3.00;2.80;;;19.30;79.40;;;;;;5029603;28;20029;-58
2022/06/18 06:15:08;;;;;;;2.25;2.15;;;19.30;79.20;;;;;;5032248;28;20048;-58
2022/06/18 06:17:34;;;;;;;2.78;2.58;;;19.30;78.90;;;;;;5031569;28;20037;-58
2022/06/18 06:20:04;;;;;;;2.60;2.40;;;19.40;78.70;;;;;;5043279;28;20037;-59
2022/06/18 06:22:30;;;;;;;2.85;2.65;;;19.40;78.40;;;;;;5030188;28;20033;-60
2022/06/18 06:24:56;;;;;;;2.47;2.33;;;19.50;78.20;;;;;;5018058;28;20030;-58
2022/06/18 06:27:21;;;;;;;2.83;2.63;;;19.50;78.20;;;;;;5029516;28;20032;-58
2022/06/18 06:29:47;;;;;;;3.00;2.80;;;19.60;78.20;;;;;;5032326;28;20029;-58
2022/06/18 06:32:12;;;;;;;2.72;2.53;;;19.60;78.20;;;;;;5032364;28;20021;-58
2022/06/18 06:34:38;;;;;;;3.00;2.70;;;19.60;77.70;;;;;;5027335;28;20047;-57
2022/06/18 06:37:04;;;;;;;3.40;2.60;;;19.60;77.60;;;;;;5036469;28;20072;-57
2022/06/18 06:39:30;;;;;;;2.60;2.40;;;19.70;77.50;;;;;;5027324;28;20059;-58
2022/06/18 06:41:55;;;;;;;2.50;2.30;;;19.70;77.20;;;;;;5035287;28;20072;-58
2022/06/18 06:44:21;;;;;;;2.70;2.50;;;19.70;77.10;;;;;;5036586;28;20029;-58
2022/06/18 06:46:47;;;;;;;2.42;2.22;;;19.70;77.00;;;;;;5028824;28;20054;-58
2022/06/18 06:49:13;;;;;;;2.78;2.58;;;19.70;76.90;;;;;;5035589;28;20025;-58
2022/06/18 06:51:39;;;;;;;2.33;2.22;;;19.70;76.70;;;;;;5035522;28;20489;-58
2022/06/18 06:54:06;;;;;;;2.38;2.17;;;19.70;76.60;;;;;;5035937;28;20032;-58
2022/06/18 06:59:17;;;;;;;2.80;2.60;;;19.60;76.50;;;;;;5026353;28;20121;-58
2022/06/18 07:01:42;;;;;;;2.75;2.55;;;19.60;76.60;;;;;;5046729;28;20113;-58
2022/06/18 07:04:11;;;;;;;2.72;2.53;;;19.60;76.70;;;;;;5035219;28;20060;-58
2022/06/18 07:06:36;;;;;;;2.50;2.30;;;19.60;76.70;;;;;;5034568;28;20033;-58
2022/06/18 07:09:07;;;;;;;3.17;2.40;;;19.60;76.90;;;;;;5030480;28;20033;-58
2022/06/18 07:11:33;;;;;;;2.60;2.40;;;19.60;76.80;;;;;;5034978;28;20029;-56
2022/06/18 07:14:00;;;;;;;2.80;2.60;;;19.60;76.90;;;;;;5030805;28;20108;-57
2022/06/18 07:16:26;;;;;;;2.60;2.40;;;19.60;77.00;;;;;;5034492;28;20030;-58
2022/06/18 07:18:53;;;;;;;2.72;2.53;;;19.60;77.20;;;;;;5040468;28;20022;-58
2022/06/18 07:21:21;;;;;;;2.65;2.45;;;19.60;77.00;;;;;;5039294;28;20033;-58
2022/06/18 07:23:47;;;;;;;2.50;2.28;;;19.70;76.80;;;;;;5049043;28;20025;-57
2022/06/18 07:26:16;;;;;;;2.70;2.50;;;19.70;76.60;;;;;;5042205;28;20033;-58
2022/06/18 07:28:43;;;;;;;2.90;2.70;;;19.80;76.60;;;;;;5029699;28;20018;-57
2022/06/18 07:31:15;;;;;;;2.55;2.35;;;19.90;76.50;;;;;;5040096;28;20105;-58
2022/06/18 07:33:45;;;;;;;2.30;2.17;;;20.00;76.40;;;;;;5035677;28;20033;-58
2022/06/18 07:36:10;;;;;;;2.40;2.20;;;20.10;76.00;;;;;;5035987;28;20033;-58
2022/06/18 07:38:36;;;;;;;2.13;1.90;;;20.30;75.60;;;;;;5036312;28;20025;-57
2022/06/18 07:41:02;;;;;;;2.95;2.72;;;20.50;75.40;;;;;;5040078;28;20394;-57
2022/06/18 07:43:38;;;;;;;2.50;2.30;;;20.60;75.80;;;;;;5026565;28;20029;-58
2022/06/18 07:46:06;;;;;;;2.30;2.20;;;20.80;74.80;;;;;;5039082;28;20017;-58
2022/06/18 07:48:32;;;;;;;2.50;2.30;;;21.00;74.30;;;;;;5042123;28;20069;-58
2022/06/18 07:50:58;;;;;;;2.10;2.00;;;21.20;74.00;;;;;;5035892;28;20067;-57
2022/06/18 07:53:25;;;;;;;2.10;2.00;;;21.30;73.50;;;;;;5034955;28;20025;-58
2022/06/18 07:55:52;;;;;;;2.38;2.20;;;21.30;73.10;;;;;;5041094;28;20259;-58
2022/06/18 07:58:18;;;;;;;2.13;2.03;;;21.40;73.10;;;;;;5038239;28;20108;-58
2022/06/18 08:00:44;;;;;;;2.53;2.33;;;21.60;73.00;;;;;;5038360;28;20029;-58
2022/06/18 08:03:12;;;;;;;2.22;2.05;;;21.70;72.70;;;;;;5035332;28;20025;-58
2022/06/18 08:05:39;;;;;;;2.38;2.17;;;21.90;72.50;;;;;;5029557;28;20033;-58
2022/06/18 08:08:05;;;;;;;2.00;1.90;;;22.00;72.10;;;;;;5027127;28;20037;-58
2022/06/18 08:10:36;;;;;;;2.30;2.10;;;22.10;71.50;;;;;;5035957;28;20469;-58
2022/06/18 08:13:02;;;;;;;2.50;2.30;;;22.20;71.30;;;;;;5024517;28;20018;-58
2022/06/18 08:15:28;;;;;;;2.58;2.38;;;22.30;70.80;;;;;;5034370;28;20032;-58
2022/06/18 08:17:53;;;;;;;2.30;2.20;;;22.30;70.60;;;;;;5033367;28;20116;-58
2022/06/18 08:20:19;;;;;;;2.20;2.10;;;22.40;70.10;;;;;;5019058;28;20530;-58
2022/06/18 08:22:50;;;;;;;2.67;2.47;;;22.40;70.10;;;;;;5031573;28;20083;-58
2022/06/18 08:25:18;;;;;;;2.60;2.40;;;22.40;69.70;;;;;;5023428;28;20101;-58
2022/06/18 08:27:45;;;;;;;2.28;2.08;;;22.40;69.70;;;;;;5028519;28;20034;-57
2022/06/18 08:30:12;;;;;;;2.15;1.95;;;22.40;69.50;;;;;;5034320;28;20108;-58
2022/06/18 08:32:38;;;;;;;2.20;2.05;;;22.30;69.20;;;;;;5022255;28;20048;-58
2022/06/18 08:35:05;;;;;;;2.17;2.08;;;22.30;70.00;;;;;;5032862;28;20049;-58
2022/06/18 08:37:32;;;;;;;2.28;2.13;;;22.30;69.10;;;;;;5032001;28;20025;-58
2022/06/18 08:40:00;;;;;;;2.65;2.45;;;22.20;69.20;;;;;;5028047;28;20042;-58
2022/06/18 08:42:42;;;;;;;2.53;2.33;;;22.20;69.20;;;;;;5014189;28;20032;-58
2022/06/18 08:45:29;;;;;;;2.22;2.05;;;22.20;69.50;;;;;;5028319;28;20025;-58
2022/06/18 08:48:05;;;;;;;2.50;2.30;;;22.10;69.70;;;;;;5025546;28;20050;-58
2022/06/18 08:50:39;;;;;;;2.08;1.98;;;22.20;69.90;;;;;;5022840;28;20037;-58
2022/06/18 08:53:28;;;;;;;2.22;2.05;;;22.30;69.90;;;;;;5033603;28;20026;-58
2022/06/18 08:56:08;;;;;;;2.30;2.10;;;22.30;69.80;;;;;;5033904;28;20026;-58
2022/06/18 08:58:44;;;;;;;2.50;2.30;;;22.40;69.50;;;;;;5019147;28;20503;-58
2022/06/18 09:01:24;;;;;;;2.33;2.13;;;22.50;69.10;;;;;;5020011;28;20080;-58
2022/06/18 09:04:00;;;;;;;2.50;2.30;;;22.50;68.90;;;;;;5022100;28;20044;-58
2022/06/18 09:06:44;;;;;;;3.83;2.33;;;22.60;68.80;;;;;;5029595;28;20033;-57
2022/06/18 09:09:52;;;;;;;2.30;2.20;;;22.60;68.70;;;;;;5030184;28;20431;-58
2022/06/18 09:12:24;;;;;;;2.25;2.15;;;22.60;68.40;;;;;;5022215;28;20038;-58
2022/06/18 09:15:02;;;;;;;2.30;2.20;;;22.60;68.50;;;;;;5036115;28;20112;-58
2022/06/18 09:18:02;;;;;;;2.38;2.28;;;22.60;68.60;;;;;;5027745;28;20108;-58
2022/06/18 09:20:51;;;;;;;2.40;2.20;;;22.60;68.10;;;;;;5022497;28;20136;-58
2022/06/18 09:23:50;;;;;;;2.55;2.35;;;22.60;68.40;;;;;;5027873;28;20482;-58
2022/06/18 09:26:24;;;;;;;2.60;2.40;;;22.60;68.60;;;;;;5025942;28;20102;-58
2022/06/18 09:28:58;;;;;;;2.78;2.58;;;22.60;68.60;;;;;;5024316;28;20025;-58
2022/06/18 09:31:35;;;;;;;2.75;2.55;;;22.60;68.50;;;;;;5033009;28;20033;-58
2022/06/18 09:34:11;;;;;;;2.60;2.40;;;22.60;68.40;;;;;;5025248;28;20037;-58
2022/06/18 09:36:42;;;;;;;2.97;2.67;;;22.60;68.40;;;;;;5023987;28;20056;-57
2022/06/18 09:39:11;;;;;;;;;;;22.60;68.60;;;;;;5023294;28;20537;-58
2022/06/18 09:41:56;;;;;;;3.45;3.10;;;22.50;68.70;;;;;;5019859;28;19972;-58
2022/06/18 09:44:44;;;;;;;2.85;2.65;;;22.50;68.80;;;;;;5027272;28;20366;-58
2022/06/18 09:47:37;;;;;;;3.35;3.05;;;22.40;68.70;;;;;;5028108;28;20034;-58
2022/06/18 09:50:11;;;;;;;3.65;2.72;;;22.40;68.70;;;;;;5024671;28;20096;-58
2022/06/18 09:52:39;;;;;;;3.55;3.25;;;22.30;69.00;;;;;;5031436;28;20033;-58
2022/06/18 09:55:08;;;;;;;3.75;3.08;;;22.30;69.30;;;;;;5030843;28;20075;-58
2022/06/18 09:57:36;;;;;;;3.50;3.20;;;22.30;69.50;;;;;;5020151;28;20037;-58
2022/06/18 10:00:13;;;;;;;3.00;2.80;;;22.30;69.60;;;;;;5024062;28;20053;-58
2022/06/18 10:02:45;;;;;;;3.33;3.03;;;22.30;69.70;;;;;;5032429;28;20021;-58
2022/06/18 10:08:08;;;;;;;3.50;3.20;;;22.40;69.50;;;;;;5021260;28;20113;-58
2022/06/18 10:10:35;;;;;;;3.78;3.10;;;22.40;70.10;;;;;;5026449;28;20076;-58
2022/06/18 10:13:06;;;;;;;2.97;2.78;;;22.50;69.20;;;;;;5024437;28;20057;-58
2022/06/18 10:15:31;;;;;;;3.05;2.80;;;22.50;68.90;;;;;;5032388;28;20479;-58
2022/06/18 10:18:16;;;;;;;2.97;2.78;;;22.60;68.70;;;;;;5036930;28;20083;-58
2022/06/18 10:21:04;;;;;;;2.90;2.70;;;22.60;68.10;;;;;;5036925;28;20029;-58
2022/06/18 10:23:39;;;;;;;2.83;2.63;;;22.70;68.10;;;;;;5023848;28;20053;-58
2022/06/18 10:26:26;;;;;;;3.28;3.05;;;22.70;68.10;;;;;;5036463;28;20524;-58
2022/06/18 10:29:20;;;;;;;2.90;2.70;;;22.70;67.80;;;;;;5036909;28;20029;-58
2022/06/18 10:32:05;;;;;;;3.03;2.72;;;22.80;67.70;;;;;;5031815;28;20432;-58
2022/06/18 10:34:48;;;;;;;2.67;2.47;;;22.80;67.80;;;;;;5036811;28;20033;-58
2022/06/18 10:37:28;;;;;;;2.80;2.60;;;22.80;67.60;;;;;;5034852;28;20116;-58
2022/06/18 10:40:12;;;;;;;3.50;3.20;;;22.80;67.60;;;;;;5034204;28;20029;-58
2022/06/18 10:43:06;;;;;;;3.10;2.90;;;22.70;67.50;;;;;;5026557;28;20048;-58
2022/06/18 10:45:41;;;;;;;3.13;2.83;;;22.70;67.10;;;;;;5032953;28;20025;-58
2022/06/18 10:48:28;;;;;;;2.83;2.63;;;22.70;67.10;;;;;;5031101;28;20057;-58
2022/06/18 10:50:57;;;;;;;2.67;2.47;;;22.70;67.10;;;;;;5024358;28;20079;-58
2022/06/18 10:53:45;;;;;;;2.78;2.55;;;22.70;67.00;;;;;;5035469;28;20040;-58
2022/06/18 10:56:20;;;;;;;2.70;2.50;;;22.80;66.70;;;;;;5031955;28;20036;-58
2022/06/18 10:58:48;;;;;;;3.25;2.65;;;22.80;66.70;;;;;;5023741;28;20124;-58
2022/06/18 11:01:16;;;;;;;3.00;2.70;;;22.90;66.50;;;;;;5034659;28;20021;-58
2022/06/18 11:03:53;;;;;;;2.80;2.60;;;22.90;66.20;;;;;;5035248;28;20024;-57
2022/06/18 11:06:19;;;;;;;2.85;2.65;;;23.00;65.70;;;;;;5021703;28;20022;-58
2022/06/18 11:08:55;;;;;;;2.97;2.67;;;23.00;65.80;;;;;;5033440;28;20076;-58
2022/06/18 11:11:25;;;;;;;2.72;2.53;;;23.00;65.60;;;;;;5031400;28;20734;-58
2022/06/18 11:13:50;;;;;;;2.70;2.50;;;23.00;65.50;;;;;;5034672;28;20104;-57
2022/06/18 11:16:23;;;;;;;2.83;2.63;;;23.00;65.40;;;;;;5035698;28;20425;-58
2022/06/18 11:18:49;;;;;;;2.50;2.30;;;23.00;65.20;;;;;;5030053;28;20473;-58
2022/06/18 11:21:19;;;;;;;2.65;2.45;;;23.00;65.20;;;;;;5034225;28;20102;-58
2022/06/18 11:23:51;;;;;;;2.50;2.30;;;23.00;65.30;;;;;;5033391;28;20021;-58
2022/06/18 11:26:22;;;;;;;3.00;2.67;;;22.90;65.40;;;;;;5034923;28;20393;-58
2022/06/18 11:28:51;;;;;;;2.70;2.50;;;22.90;65.50;;;;;;5028584;28;20056;-58
2022/06/18 11:31:33;;;;;;;2.90;2.70;;;22.90;65.50;;;;;;5028916;28;20091;-58
2022/06/18 11:34:05;;;;;;;2.72;2.53;;;22.90;65.50;;;;;;5035614;28;20147;-58
2022/06/18 11:36:35;;;;;;;2.70;2.50;;;22.80;65.60;;;;;;5035057;28;20079;-58
2022/06/18 11:39:03;;;;;;;3.00;2.80;;;22.80;65.80;;;;;;5025645;28;20026;-58
2022/06/18 11:41:45;;;;;;;3.38;3.08;;;22.80;66.10;;;;;;5030471;28;20038;-58
2022/06/18 11:44:15;;;;;;;3.30;2.90;;;22.70;66.10;;;;;;5031671;28;20097;-57
2022/06/18 11:46:45;;;;;;;2.85;2.65;;;22.70;66.00;;;;;;5034528;28;20400;-58
2022/06/18 11:49:22;;;;;;;2.75;2.55;;;22.60;66.20;;;;;;5034249;28;20026;-58
2022/06/18 11:51:57;;;;;;;2.70;2.50;;;22.60;66.20;;;;;;5034763;28;20025;-57
2022/06/18 11:54:36;;;;;;;2.20;2.10;;;22.50;65.90;;;;;;5034432;28;20079;-58
2022/06/18 11:57:30;;;;;;;2.83;2.22;;;22.50;65.70;;;;;;5021393;28;20410;-58
2022/06/18 12:00:07;;;;;;;2.50;2.30;;;22.60;65.50;;;;;;5018083;28;20030;-58
2022/06/18 12:02:49;;;;;;;3.97;2.80;;;22.60;65.50;;;;;;5026602;28;20090;-58
2022/06/18 12:05:23;;;;;;;2.53;2.33;;;22.70;65.30;;;;;;5034766;28;20028;-57
2022/06/18 12:07:56;;;;;;;2.50;2.30;;;22.70;64.80;;;;;;5034169;28;20017;-58
2022/06/18 12:10:33;;;;;;;2.30;2.20;;;22.80;64.50;;;;;;5028529;28;20041;-58
2022/06/18 12:13:26;;;;;;;2.60;2.40;;;22.80;64.50;;;;;;5018771;28;20030;-58
2022/06/18 12:16:10;;;;;;;2.45;2.30;;;22.80;63.90;;;;;;5028572;28;20022;-58
2022/06/18 12:19:23;;;;;;;2.17;2.08;;;22.80;64.10;;;;;;5023921;28;20061;-58
2022/06/18 12:21:55;;;;;;;2.58;2.38;;;22.80;64.20;;;;;;5044621;28;20408;-58
2022/06/18 12:24:43;;;;;;;2.72;2.53;;;22.80;64.10;;;;;;5034005;28;20108;-58
2022/06/18 12:27:15;;;;;;;2.42;2.22;;;22.90;63.80;;;;;;5021962;28;20037;-58
2022/06/18 12:29:43;;;;;;;2.20;2.10;;;22.90;64.00;;;;;;5028588;28;20032;-57
2022/06/18 12:32:28;;;;;;;2.65;2.45;;;22.90;63.90;;;;;;5014337;28;20033;-58
2022/06/18 12:35:08;;;;;;;2.50;2.30;;;22.90;63.40;;;;;;5031132;28;20036;-58
2022/06/18 12:37:53;;;;;;;2.60;2.40;;;22.90;63.50;;;;;;5033883;28;20492;-57
2022/06/18 12:40:38;;;;;;;2.60;2.40;;;22.80;63.60;;;;;;5024811;28;20435;-58
2022/06/18 12:43:38;;;;;;;2.20;2.10;;;22.80;64.10;;;;;;5020475;28;20500;-58
2022/06/18 12:46:10;;;;;;;1.92;1.83;;;22.80;63.60;;;;;;5023907;28;20036;-58
2022/06/18 12:49:02;;;;;;;1.83;1.73;;;22.80;63.60;;;;;;5018108;28;20037;-58
2022/06/18 12:51:42;;;;;;;1.70;1.60;;;22.80;63.70;;;;;;5027811;28;20485;-57
2022/06/18 12:54:24;;;;;;;2.38;2.17;;;22.80;63.10;;;;;;5033939;28;20021;-58
2022/06/18 12:57:09;;;;;;;2.25;2.05;;;22.70;63.20;;;;;;5020022;28;20037;-58
2022/06/18 13:00:00;;;;;;;2.90;2.60;;;22.70;63.10;;;;;;5026301;28;20085;-57
2022/06/18 13:03:03;;;;;;;2.80;2.60;;;22.70;63.40;;;;;;5033910;28;20470;-58
2022/06/18 13:05:28;;;;;;;2.55;2.35;;;22.70;63.60;;;;;;5020297;28;20156;-57
2022/06/18 13:08:18;;;;;;;3.53;3.03;;;22.60;63.70;;;;;;5032951;28;20489;-58
2022/06/18 13:10:54;;;;;;;3.00;2.70;;;22.60;63.60;;;;;;5032726;28;20030;-57
2022/06/18 13:13:44;;;;;;;2.25;2.15;;;22.60;64.00;;;;;;5019784;28;20068;-58
2022/06/18 13:16:18;;;;;;;2.47;2.28;;;22.60;63.60;;;;;;5033187;28;20083;-58
2022/06/18 13:18:48;;;;;;;2.47;2.28;;;22.50;63.60;;;;;;5033124;28;20029;-58
2022/06/18 13:21:14;;;;;;;3.25;2.55;;;22.50;63.80;;;;;;5027716;28;20486;-56
2022/06/18 13:29:42;;;;;;;2.83;2.40;;;22.40;63.60;;;;;;5024043;28;20040;-58
2022/06/18 13:32:23;;;;;;;3.90;3.30;;;22.40;63.30;;;;;;5032914;28;20021;-57